sensor_id;sensor_type;location;lat;lon;timestamp;temperature;humidity
46608;DHT22;32330;51.936;7.184;2022-08-21T00:00:20;18.00;99.90
46608;DHT22;32330;51.936;7.184;2022-08-21T00:02:47;17.90;99.90
46608;DHT22;32330;51.936;7.184;2022-08-21T00:05:14;17.90;99.90
46608;DHT22;32330;51.936;7.184;2022-08-21T00:07:39;17.90;99.90
46608;DHT22;32330;51.936;7.184;2022-08-21T00:10:05;17.90;99.90
46608;DHT22;32330;51.936;7.184;2022-08-21T00:12:31;17.80;99.90
46608;DHT22;32330;51.936;7.184;2022-08-21T00:14:57;17.70;99.90
46608;DHT22;32330;51.936;7.184;2022-08-21T00:17:22;17.70;99.90
46608;DHT22;32330;51.936;7.184;2022-08-21T00:19:48;17.60;99.90
46608;DHT22;32330;51.936;7.184;2022-08-21T00:22:13;17.60;99.90
46608;DHT22;32330;51.936;7.184;2022-08-21T00:24:39;17.60;99.90
46608;DHT22;32330;51.936;7.184;2022-08-21T00:27:04;17.60;99.90
46608;DHT22;32330;51.936;7.184;2022-08-21T00:29:30;17.60;99.90
46608;DHT22;32330;51.936;7.184;2022-08-21T00:31:55;17.50;99.90
46608;DHT22;32330;51.936;7.184;2022-08-21T00:34:21;17.40;99.90
46608;DHT22;32330;51.936;7.184;2022-08-21T00:36:46;17.40;99.90
46608;DHT22;32330;51.936;7.184;2022-08-21T00:39:12;17.40;99.90
46608;DHT22;32330;51.936;7.184;2022-08-21T00:41:38;17.40;99.90
46608;DHT22;32330;51.936;7.184;2022-08-21T00:44:05;17.40;99.90
46608;DHT22;32330;51.936;7.184;2022-08-21T00:46:30;17.30;99.90
46608;DHT22;32330;51.936;7.184;2022-08-21T00:48:56;17.30;99.90
46608;DHT22;32330;51.936;7.184;2022-08-21T00:51:23;17.20;99.90
46608;DHT22;32330;51.936;7.184;2022-08-21T00:53:51;17.20;99.90
46608;DHT22;32330;51.936;7.184;2022-08-21T00:56:18;17.20;99.90
46608;DHT22;32330;51.936;7.184;2022-08-21T00:58:44;17.20;99.90
46608;DHT22;32330;51.936;7.184;2022-08-21T01:01:10;17.10;99.90
46608;DHT22;32330;51.936;7.184;2022-08-21T01:03:36;17.00;99.90
46608;DHT22;32330;51.936;7.184;2022-08-21T01:06:01;17.00;99.90
46608;DHT22;32330;51.936;7.184;2022-08-21T01:08:28;16.90;99.90
46608;DHT22;32330;51.936;7.184;2022-08-21T01:10:54;17.00;99.90
46608;DHT22;32330;51.936;7.184;2022-08-21T01:13:20;16.90;99.90
46608;DHT22;32330;51.936;7.184;2022-08-21T01:15:50;16.90;99.90
46608;DHT22;32330;51.936;7.184;2022-08-21T01:18:17;16.90;99.90
46608;DHT22;32330;51.936;7.184;2022-08-21T01:20:45;16.80;99.90
46608;DHT22;32330;51.936;7.184;2022-08-21T01:23:11;16.70;99.90
46608;DHT22;32330;51.936;7.184;2022-08-21T01:25:36;16.80;99.90
46608;DHT22;32330;51.936;7.184;2022-08-21T01:28:04;16.60;99.90
46608;DHT22;32330;51.936;7.184;2022-08-21T01:30:32;16.60;99.90
46608;DHT22;32330;51.936;7.184;2022-08-21T01:32:59;16.50;99.90
46608;DHT22;32330;51.936;7.184;2022-08-21T01:35:25;16.50;99.90
46608;DHT22;32330;51.936;7.184;2022-08-21T01:37:51;16.50;99.90
46608;DHT22;32330;51.936;7.184;2022-08-21T01:40:17;16.50;99.90
46608;DHT22;32330;51.936;7.184;2022-08-21T01:42:43;16.40;99.90
46608;DHT22;32330;51.936;7.184;2022-08-21T01:45:09;16.40;99.90
46608;DHT22;32330;51.936;7.184;2022-08-21T01:47:35;16.40;99.90
46608;DHT22;32330;51.936;7.184;2022-08-21T01:50:02;16.40;99.90
46608;DHT22;32330;51.936;7.184;2022-08-21T01:52:28;16.30;99.90
46608;DHT22;32330;51.936;7.184;2022-08-21T01:54:53;16.20;99.90
46608;DHT22;32330;51.936;7.184;2022-08-21T01:57:19;16.20;99.90
46608;DHT22;32330;51.936;7.184;2022-08-21T01:59:44;16.20;99.90
46608;DHT22;32330;51.936;7.184;2022-08-21T02:02:10;16.20;99.90
46608;DHT22;32330;51.936;7.184;2022-08-21T02:04:35;16.20;99.90
46608;DHT22;32330;51.936;7.184;2022-08-21T02:07:01;16.20;99.90
46608;DHT22;32330;51.936;7.184;2022-08-21T02:09:27;16.10;99.90
46608;DHT22;32330;51.936;7.184;2022-08-21T02:11:52;16.00;99.90
46608;DHT22;32330;51.936;7.184;2022-08-21T02:14:18;16.00;99.90
46608;DHT22;32330;51.936;7.184;2022-08-21T02:16:44;16.00;99.90
46608;DHT22;32330;51.936;7.184;2022-08-21T02:19:10;16.00;99.90
46608;DHT22;32330;51.936;7.184;2022-08-21T02:21:36;15.90;99.90
46608;DHT22;32330;51.936;7.184;2022-08-21T02:24:02;15.90;99.90
46608;DHT22;32330;51.936;7.184;2022-08-21T02:26:28;15.80;99.90
46608;DHT22;32330;51.936;7.184;2022-08-21T02:28:53;15.80;99.90
46608;DHT22;32330;51.936;7.184;2022-08-21T02:31:19;15.80;99.90
46608;DHT22;32330;51.936;7.184;2022-08-21T02:33:44;15.80;99.90
46608;DHT22;32330;51.936;7.184;2022-08-21T02:36:10;15.70;99.90
46608;DHT22;32330;51.936;7.184;2022-08-21T02:38:36;15.70;99.90
46608;DHT22;32330;51.936;7.184;2022-08-21T02:41:06;15.60;99.90
46608;DHT22;32330;51.936;7.184;2022-08-21T02:43:32;15.60;99.90
46608;DHT22;32330;51.936;7.184;2022-08-21T02:45:58;15.60;99.90
46608;DHT22;32330;51.936;7.184;2022-08-21T02:48:25;15.60;99.90
46608;DHT22;32330;51.936;7.184;2022-08-21T02:50:55;15.60;99.90
46608;DHT22;32330;51.936;7.184;2022-08-21T02:53:21;15.50;99.90
46608;DHT22;32330;51.936;7.184;2022-08-21T02:55:48;15.50;99.90
46608;DHT22;32330;51.936;7.184;2022-08-21T02:58:14;15.50;99.90
46608;DHT22;32330;51.936;7.184;2022-08-21T03:00:41;15.40;99.90
46608;DHT22;32330;51.936;7.184;2022-08-21T03:03:06;15.40;99.90
46608;DHT22;32330;51.936;7.184;2022-08-21T03:05:33;15.40;99.90
46608;DHT22;32330;51.936;7.184;2022-08-21T03:08:00;15.40;99.90
46608;DHT22;32330;51.936;7.184;2022-08-21T03:10:26;15.40;99.90
46608;DHT22;32330;51.936;7.184;2022-08-21T03:12:52;15.30;99.90
46608;DHT22;32330;51.936;7.184;2022-08-21T03:15:20;15.30;99.90
46608;DHT22;32330;51.936;7.184;2022-08-21T03:17:46;15.30;99.90
46608;DHT22;32330;51.936;7.184;2022-08-21T03:20:13;15.20;99.90
46608;DHT22;32330;51.936;7.184;2022-08-21T03:22:39;15.20;99.90
46608;DHT22;32330;51.936;7.184;2022-08-21T03:25:05;15.20;99.90
46608;DHT22;32330;51.936;7.184;2022-08-21T03:27:31;15.10;99.90
46608;DHT22;32330;51.936;7.184;2022-08-21T03:29:57;15.20;99.90
46608;DHT22;32330;51.936;7.184;2022-08-21T03:32:22;15.20;99.90
46608;DHT22;32330;51.936;7.184;2022-08-21T03:34:48;15.10;99.90
46608;DHT22;32330;51.936;7.184;2022-08-21T03:37:13;15.00;99.90
46608;DHT22;32330;51.936;7.184;2022-08-21T03:39:39;15.00;99.90
46608;DHT22;32330;51.936;7.184;2022-08-21T03:42:05;15.00;99.90
46608;DHT22;32330;51.936;7.184;2022-08-21T03:44:31;15.10;99.90
46608;DHT22;32330;51.936;7.184;2022-08-21T03:46:57;15.00;99.90
46608;DHT22;32330;51.936;7.184;2022-08-21T03:49:23;15.10;99.90
46608;DHT22;32330;51.936;7.184;2022-08-21T03:51:48;15.00;99.90
46608;DHT22;32330;51.936;7.184;2022-08-21T03:54:14;15.00;99.90
46608;DHT22;32330;51.936;7.184;2022-08-21T03:56:39;14.90;99.90
46608;DHT22;32330;51.936;7.184;2022-08-21T03:59:05;14.90;99.90
46608;DHT22;32330;51.936;7.184;2022-08-21T04:01:30;14.90;99.90
46608;DHT22;32330;51.936;7.184;2022-08-21T04:03:56;14.90;99.90
46608;DHT22;32330;51.936;7.184;2022-08-21T04:06:21;14.90;99.90
46608;DHT22;32330;51.936;7.184;2022-08-21T04:08:47;14.80;99.90
46608;DHT22;32330;51.936;7.184;2022-08-21T04:11:12;14.80;99.90
46608;DHT22;32330;51.936;7.184;2022-08-21T04:13:38;14.80;99.90
46608;DHT22;32330;51.936;7.184;2022-08-21T04:16:04;14.70;99.90
46608;DHT22;32330;51.936;7.184;2022-08-21T04:18:29;14.70;99.90
46608;DHT22;32330;51.936;7.184;2022-08-21T04:20:55;14.70;99.90
46608;DHT22;32330;51.936;7.184;2022-08-21T04:23:22;14.60;99.90
46608;DHT22;32330;51.936;7.184;2022-08-21T04:25:48;14.70;99.90
46608;DHT22;32330;51.936;7.184;2022-08-21T04:28:13;14.70;99.90
46608;DHT22;32330;51.936;7.184;2022-08-21T04:30:39;14.60;99.90
46608;DHT22;32330;51.936;7.184;2022-08-21T04:33:04;14.60;99.90
46608;DHT22;32330;51.936;7.184;2022-08-21T04:35:30;14.60;99.90
46608;DHT22;32330;51.936;7.184;2022-08-21T04:37:56;14.60;99.90
46608;DHT22;32330;51.936;7.184;2022-08-21T04:40:22;14.60;99.90
46608;DHT22;32330;51.936;7.184;2022-08-21T04:42:50;14.60;99.90
46608;DHT22;32330;51.936;7.184;2022-08-21T04:45:20;14.60;99.90
46608;DHT22;32330;51.936;7.184;2022-08-21T04:47:50;14.60;99.90
46608;DHT22;32330;51.936;7.184;2022-08-21T04:50:16;14.60;99.90
46608;DHT22;32330;51.936;7.184;2022-08-21T04:52:42;14.70;99.90
46608;DHT22;32330;51.936;7.184;2022-08-21T04:55:08;14.70;99.90
46608;DHT22;32330;51.936;7.184;2022-08-21T04:57:34;14.60;99.90
46608;DHT22;32330;51.936;7.184;2022-08-21T05:00:00;14.70;99.90
46608;DHT22;32330;51.936;7.184;2022-08-21T05:02:25;14.70;99.90
46608;DHT22;32330;51.936;7.184;2022-08-21T05:04:52;14.70;99.90
46608;DHT22;32330;51.936;7.184;2022-08-21T05:07:20;14.70;99.90
46608;DHT22;32330;51.936;7.184;2022-08-21T05:09:47;14.70;99.90
46608;DHT22;32330;51.936;7.184;2022-08-21T05:12:12;14.70;99.90
46608;DHT22;32330;51.936;7.184;2022-08-21T05:14:38;14.70;99.90
46608;DHT22;32330;51.936;7.184;2022-08-21T05:17:03;14.80;99.90
46608;DHT22;32330;51.936;7.184;2022-08-21T05:19:29;14.80;99.90
46608;DHT22;32330;51.936;7.184;2022-08-21T05:21:55;14.80;99.90
46608;DHT22;32330;51.936;7.184;2022-08-21T05:24:20;14.80;99.90
46608;DHT22;32330;51.936;7.184;2022-08-21T05:26:46;14.80;99.90
46608;DHT22;32330;51.936;7.184;2022-08-21T05:29:12;14.80;99.90
46608;DHT22;32330;51.936;7.184;2022-08-21T05:31:37;14.90;99.90
46608;DHT22;32330;51.936;7.184;2022-08-21T05:34:03;14.90;99.90
46608;DHT22;32330;51.936;7.184;2022-08-21T05:36:29;15.00;99.90
46608;DHT22;32330;51.936;7.184;2022-08-21T05:38:54;15.00;99.90
46608;DHT22;32330;51.936;7.184;2022-08-21T05:41:20;15.00;99.90
46608;DHT22;32330;51.936;7.184;2022-08-21T05:43:45;15.10;99.90
46608;DHT22;32330;51.936;7.184;2022-08-21T05:46:11;15.20;99.90
46608;DHT22;32330;51.936;7.184;2022-08-21T05:48:36;15.20;99.90
46608;DHT22;32330;51.936;7.184;2022-08-21T05:51:06;15.30;99.90
46608;DHT22;32330;51.936;7.184;2022-08-21T05:53:32;15.40;99.90
46608;DHT22;32330;51.936;7.184;2022-08-21T05:55:57;15.40;99.90
46608;DHT22;32330;51.936;7.184;2022-08-21T05:58:23;15.50;99.90
46608;DHT22;32330;51.936;7.184;2022-08-21T06:00:49;15.60;99.90
46608;DHT22;32330;51.936;7.184;2022-08-21T06:03:16;15.70;99.90
46608;DHT22;32330;51.936;7.184;2022-08-21T06:05:42;15.80;99.90
46608;DHT22;32330;51.936;7.184;2022-08-21T06:08:08;15.90;99.90
46608;DHT22;32330;51.936;7.184;2022-08-21T06:10:34;16.00;99.90
46608;DHT22;32330;51.936;7.184;2022-08-21T06:12:59;16.10;99.90
46608;DHT22;32330;51.936;7.184;2022-08-21T06:15:24;16.30;99.90
46608;DHT22;32330;51.936;7.184;2022-08-21T06:17:51;16.40;99.90
46608;DHT22;32330;51.936;7.184;2022-08-21T06:20:17;16.60;99.90
46608;DHT22;32330;51.936;7.184;2022-08-21T06:22:42;16.70;99.90
46608;DHT22;32330;51.936;7.184;2022-08-21T06:25:08;16.80;99.90
46608;DHT22;32330;51.936;7.184;2022-08-21T06:27:34;17.00;99.90
46608;DHT22;32330;51.936;7.184;2022-08-21T06:29:59;17.10;99.90
46608;DHT22;32330;51.936;7.184;2022-08-21T06:32:25;17.20;99.90
46608;DHT22;32330;51.936;7.184;2022-08-21T06:34:55;17.40;99.90
46608;DHT22;32330;51.936;7.184;2022-08-21T06:37:24;17.60;99.90
46608;DHT22;32330;51.936;7.184;2022-08-21T06:39:52;17.70;99.90
46608;DHT22;32330;51.936;7.184;2022-08-21T06:42:18;17.80;99.90
46608;DHT22;32330;51.936;7.184;2022-08-21T06:44:44;17.90;99.90
46608;DHT22;32330;51.936;7.184;2022-08-21T06:47:09;18.10;99.90
46608;DHT22;32330;51.936;7.184;2022-08-21T06:49:35;18.20;99.90
46608;DHT22;32330;51.936;7.184;2022-08-21T06:52:01;18.40;99.90
46608;DHT22;32330;51.936;7.184;2022-08-21T06:54:27;18.50;99.90
46608;DHT22;32330;51.936;7.184;2022-08-21T06:56:52;18.70;99.90
46608;DHT22;32330;51.936;7.184;2022-08-21T06:59:18;18.80;99.90
46608;DHT22;32330;51.936;7.184;2022-08-21T07:01:43;18.90;99.90
46608;DHT22;32330;51.936;7.184;2022-08-21T07:04:09;19.10;99.90
46608;DHT22;32330;51.936;7.184;2022-08-21T07:06:35;19.30;99.90
46608;DHT22;32330;51.936;7.184;2022-08-21T07:09:01;19.50;99.90
46608;DHT22;32330;51.936;7.184;2022-08-21T07:11:27;19.70;99.90
46608;DHT22;32330;51.936;7.184;2022-08-21T07:13:53;19.70;99.90
46608;DHT22;32330;51.936;7.184;2022-08-21T07:16:20;19.80;99.90
46608;DHT22;32330;51.936;7.184;2022-08-21T07:18:45;19.90;99.90
46608;DHT22;32330;51.936;7.184;2022-08-21T07:21:11;20.10;99.90
46608;DHT22;32330;51.936;7.184;2022-08-21T07:23:38;20.30;99.90
46608;DHT22;32330;51.936;7.184;2022-08-21T07:26:05;20.40;99.90
46608;DHT22;32330;51.936;7.184;2022-08-21T07:28:30;20.50;99.90
46608;DHT22;32330;51.936;7.184;2022-08-21T07:30:57;20.60;99.90
46608;DHT22;32330;51.936;7.184;2022-08-21T07:33:23;20.70;99.90
46608;DHT22;32330;51.936;7.184;2022-08-21T07:35:49;20.80;99.90
46608;DHT22;32330;51.936;7.184;2022-08-21T07:38:15;20.80;99.90
46608;DHT22;32330;51.936;7.184;2022-08-21T07:40:40;21.00;99.90
46608;DHT22;32330;51.936;7.184;2022-08-21T07:43:06;21.10;99.90
46608;DHT22;32330;51.936;7.184;2022-08-21T07:45:32;21.20;99.90
46608;DHT22;32330;51.936;7.184;2022-08-21T07:47:57;21.40;99.90
46608;DHT22;32330;51.936;7.184;2022-08-21T07:50:23;21.50;99.90
46608;DHT22;32330;51.936;7.184;2022-08-21T07:52:48;21.60;99.90
46608;DHT22;32330;51.936;7.184;2022-08-21T07:55:16;21.60;99.90
46608;DHT22;32330;51.936;7.184;2022-08-21T07:57:41;21.40;99.90
46608;DHT22;32330;51.936;7.184;2022-08-21T08:00:08;21.60;99.90
46608;DHT22;32330;51.936;7.184;2022-08-21T08:02:35;21.80;99.90
46608;DHT22;32330;51.936;7.184;2022-08-21T08:05:01;22.10;99.60
46608;DHT22;32330;51.936;7.184;2022-08-21T08:07:27;22.20;98.60
46608;DHT22;32330;51.936;7.184;2022-08-21T08:09:53;22.10;97.80
46608;DHT22;32330;51.936;7.184;2022-08-21T08:12:18;22.10;97.50
46608;DHT22;32330;51.936;7.184;2022-08-21T08:14:45;22.20;97.20
46608;DHT22;32330;51.936;7.184;2022-08-21T08:17:12;22.30;97.00
46608;DHT22;32330;51.936;7.184;2022-08-21T08:19:38;22.40;96.50
46608;DHT22;32330;51.936;7.184;2022-08-21T08:22:17;22.70;96.00
46608;DHT22;32330;51.936;7.184;2022-08-21T08:24:45;22.60;95.90
46608;DHT22;32330;51.936;7.184;2022-08-21T08:27:10;22.60;96.30
46608;DHT22;32330;51.936;7.184;2022-08-21T08:29:36;22.60;96.40
46608;DHT22;32330;51.936;7.184;2022-08-21T08:32:02;22.80;96.20
46608;DHT22;32330;51.936;7.184;2022-08-21T08:34:27;22.80;95.70
46608;DHT22;32330;51.936;7.184;2022-08-21T08:36:53;22.70;96.30
46608;DHT22;32330;51.936;7.184;2022-08-21T08:39:18;22.80;96.00
46608;DHT22;32330;51.936;7.184;2022-08-21T08:41:44;22.80;95.50
46608;DHT22;32330;51.936;7.184;2022-08-21T08:44:10;22.80;95.30
46608;DHT22;32330;51.936;7.184;2022-08-21T08:49:24;23.00;94.70
46608;DHT22;32330;51.936;7.184;2022-08-21T08:51:51;23.00;94.60
46608;DHT22;32330;51.936;7.184;2022-08-21T08:54:18;23.00;94.50
46608;DHT22;32330;51.936;7.184;2022-08-21T08:56:45;23.20;94.20
46608;DHT22;32330;51.936;7.184;2022-08-21T08:59:14;23.30;93.90
46608;DHT22;32330;51.936;7.184;2022-08-21T09:01:40;23.50;93.60
46608;DHT22;32330;51.936;7.184;2022-08-21T09:04:05;23.50;92.80
46608;DHT22;32330;51.936;7.184;2022-08-21T09:09:09;23.20;92.50
46608;DHT22;32330;51.936;7.184;2022-08-21T09:14:38;23.50;92.90
46608;DHT22;32330;51.936;7.184;2022-08-21T09:27:13;23.90;90.80
46608;DHT22;32330;51.936;7.184;2022-08-21T09:29:41;24.00;90.10
46608;DHT22;32330;51.936;7.184;2022-08-21T09:32:16;24.30;90.20
46608;DHT22;32330;51.936;7.184;2022-08-21T09:34:54;24.50;88.80
46608;DHT22;32330;51.936;7.184;2022-08-21T09:37:20;24.60;89.20
46608;DHT22;32330;51.936;7.184;2022-08-21T09:39:45;24.80;88.60
46608;DHT22;32330;51.936;7.184;2022-08-21T09:42:11;25.00;88.10
46608;DHT22;32330;51.936;7.184;2022-08-21T09:44:38;25.00;87.30
46608;DHT22;32330;51.936;7.184;2022-08-21T09:47:06;25.10;87.50
46608;DHT22;32330;51.936;7.184;2022-08-21T09:49:34;25.20;85.90
46608;DHT22;32330;51.936;7.184;2022-08-21T09:52:00;25.20;85.30
46608;DHT22;32330;51.936;7.184;2022-08-21T09:54:28;25.20;85.30
46608;DHT22;32330;51.936;7.184;2022-08-21T09:56:59;25.40;85.60
46608;DHT22;32330;51.936;7.184;2022-08-21T09:59:44;25.50;84.90
46608;DHT22;32330;51.936;7.184;2022-08-21T10:04:41;25.40;84.30
46608;DHT22;32330;51.936;7.184;2022-08-21T10:07:14;25.70;84.90
46608;DHT22;32330;51.936;7.184;2022-08-21T10:09:40;25.70;83.90
46608;DHT22;32330;51.936;7.184;2022-08-21T10:12:20;25.70;83.90
46608;DHT22;32330;51.936;7.184;2022-08-21T10:22:29;25.90;82.90
46608;DHT22;32330;51.936;7.184;2022-08-21T10:25:19;25.70;82.30
46608;DHT22;32330;51.936;7.184;2022-08-21T10:30:37;26.10;81.80
46608;DHT22;32330;51.936;7.184;2022-08-21T10:33:16;26.30;81.30
46608;DHT22;32330;51.936;7.184;2022-08-21T10:35:49;26.20;81.00
46608;DHT22;32330;51.936;7.184;2022-08-21T10:38:35;26.40;82.00
46608;DHT22;32330;51.936;7.184;2022-08-21T10:51:50;26.60;79.00
46608;DHT22;32330;51.936;7.184;2022-08-21T10:54:22;26.40;79.30
46608;DHT22;32330;51.936;7.184;2022-08-21T10:56:52;26.40;78.00
46608;DHT22;32330;51.936;7.184;2022-08-21T10:59:25;26.60;78.20
46608;DHT22;32330;51.936;7.184;2022-08-21T11:01:59;26.80;77.50
46608;DHT22;32330;51.936;7.184;2022-08-21T11:04:33;26.70;77.60
46608;DHT22;32330;51.936;7.184;2022-08-21T11:07:02;27.00;76.80
46608;DHT22;32330;51.936;7.184;2022-08-21T11:09:29;27.30;77.40
46608;DHT22;32330;51.936;7.184;2022-08-21T11:11:56;27.30;77.80
46608;DHT22;32330;51.936;7.184;2022-08-21T11:16:57;27.30;74.70
46608;DHT22;32330;51.936;7.184;2022-08-21T11:19:30;27.20;76.30
46608;DHT22;32330;51.936;7.184;2022-08-21T11:22:10;27.40;75.50
46608;DHT22;32330;51.936;7.184;2022-08-21T11:24:42;27.20;74.70
46608;DHT22;32330;51.936;7.184;2022-08-21T11:29:37;27.30;74.50
46608;DHT22;32330;51.936;7.184;2022-08-21T11:39:56;27.60;74.60
46608;DHT22;32330;51.936;7.184;2022-08-21T11:42:33;27.70;73.40
46608;DHT22;32330;51.936;7.184;2022-08-21T11:45:08;27.60;72.90
46608;DHT22;32330;51.936;7.184;2022-08-21T11:50:23;28.10;73.40
46608;DHT22;32330;51.936;7.184;2022-08-21T11:52:52;28.00;72.50
46608;DHT22;32330;51.936;7.184;2022-08-21T12:00:35;28.30;71.60
46608;DHT22;32330;51.936;7.184;2022-08-21T12:03:12;28.20;72.90
46608;DHT22;32330;51.936;7.184;2022-08-21T12:05:46;28.50;71.90
46608;DHT22;32330;51.936;7.184;2022-08-21T12:08:27;28.20;72.60
46608;DHT22;32330;51.936;7.184;2022-08-21T12:11:01;28.60;73.00
46608;DHT22;32330;51.936;7.184;2022-08-21T12:13:29;28.70;69.90
46608;DHT22;32330;51.936;7.184;2022-08-21T12:16:12;28.90;70.60
46608;DHT22;32330;51.936;7.184;2022-08-21T12:18:40;29.20;69.60
46608;DHT22;32330;51.936;7.184;2022-08-21T12:21:26;28.80;70.40
46608;DHT22;32330;51.936;7.184;2022-08-21T12:24:02;28.90;69.50
46608;DHT22;32330;51.936;7.184;2022-08-21T12:26:47;28.50;69.60
46608;DHT22;32330;51.936;7.184;2022-08-21T12:29:15;28.10;71.40
46608;DHT22;32330;51.936;7.184;2022-08-21T12:31:49;27.70;71.60
46608;DHT22;32330;51.936;7.184;2022-08-21T12:34:15;27.80;73.10
46608;DHT22;32330;51.936;7.184;2022-08-21T12:36:54;28.20;71.10
46608;DHT22;32330;51.936;7.184;2022-08-21T12:39:26;28.20;71.40
46608;DHT22;32330;51.936;7.184;2022-08-21T12:42:39;28.20;71.30
46608;DHT22;32330;51.936;7.184;2022-08-21T12:44:46;28.20;70.90
46608;DHT22;32330;51.936;7.184;2022-08-21T12:47:34;28.60;70.30
46608;DHT22;32330;51.936;7.184;2022-08-21T12:50:02;28.50;70.10
46608;DHT22;32330;51.936;7.184;2022-08-21T12:52:35;28.40;70.10
46608;DHT22;32330;51.936;7.184;2022-08-21T12:55:03;28.20;70.50
46608;DHT22;32330;51.936;7.184;2022-08-21T12:57:29;27.90;70.90
46608;DHT22;32330;51.936;7.184;2022-08-21T13:02:22;27.40;71.60
46608;DHT22;32330;51.936;7.184;2022-08-21T13:04:48;27.70;70.90
46608;DHT22;32330;51.936;7.184;2022-08-21T13:07:15;27.90;72.10
46608;DHT22;32330;51.936;7.184;2022-08-21T13:09:47;28.20;71.50
46608;DHT22;32330;51.936;7.184;2022-08-21T13:12:13;28.40;70.20
46608;DHT22;32330;51.936;7.184;2022-08-21T13:14:41;28.70;69.90
46608;DHT22;32330;51.936;7.184;2022-08-21T13:17:07;28.90;70.00
46608;DHT22;32330;51.936;7.184;2022-08-21T13:19:33;29.00;69.00
46608;DHT22;32330;51.936;7.184;2022-08-21T13:21:59;28.70;69.90
46608;DHT22;32330;51.936;7.184;2022-08-21T13:24:27;28.30;69.70
46608;DHT22;32330;51.936;7.184;2022-08-21T13:26:53;28.10;70.10
46608;DHT22;32330;51.936;7.184;2022-08-21T13:29:20;28.10;71.20
46608;DHT22;32330;51.936;7.184;2022-08-21T13:31:49;28.40;70.10
46608;DHT22;32330;51.936;7.184;2022-08-21T13:34:16;28.50;70.10
46608;DHT22;32330;51.936;7.184;2022-08-21T13:36:43;28.30;69.10
46608;DHT22;32330;51.936;7.184;2022-08-21T13:39:10;28.30;69.40
46608;DHT22;32330;51.936;7.184;2022-08-21T13:41:37;28.20;70.00
46608;DHT22;32330;51.936;7.184;2022-08-21T13:44:04;28.10;70.20
46608;DHT22;32330;51.936;7.184;2022-08-21T13:46:31;28.40;71.10
46608;DHT22;32330;51.936;7.184;2022-08-21T13:48:58;28.80;69.90
46608;DHT22;32330;51.936;7.184;2022-08-21T13:51:24;28.90;68.40
46608;DHT22;32330;51.936;7.184;2022-08-21T13:53:51;29.20;67.70
46608;DHT22;32330;51.936;7.184;2022-08-21T13:56:31;29.00;67.30
46608;DHT22;32330;51.936;7.184;2022-08-21T13:58:58;29.00;66.80
46608;DHT22;32330;51.936;7.184;2022-08-21T14:01:25;29.00;67.80
46608;DHT22;32330;51.936;7.184;2022-08-21T14:03:53;29.00;66.40
46608;DHT22;32330;51.936;7.184;2022-08-21T14:06:22;28.90;67.40
46608;DHT22;32330;51.936;7.184;2022-08-21T14:09:32;28.40;67.40
46608;DHT22;32330;51.936;7.184;2022-08-21T14:11:37;28.00;67.70
46608;DHT22;32330;51.936;7.184;2022-08-21T14:14:15;28.20;69.00
46608;DHT22;32330;51.936;7.184;2022-08-21T14:16:47;28.50;69.10
46608;DHT22;32330;51.936;7.184;2022-08-21T14:19:20;28.40;68.10
46608;DHT22;32330;51.936;7.184;2022-08-21T14:21:45;28.50;68.60
46608;DHT22;32330;51.936;7.184;2022-08-21T14:24:12;28.80;68.90
46608;DHT22;32330;51.936;7.184;2022-08-21T14:26:46;29.00;67.80
46608;DHT22;32330;51.936;7.184;2022-08-21T14:29:14;29.10;65.70
46608;DHT22;32330;51.936;7.184;2022-08-21T14:31:40;29.20;66.30
46608;DHT22;32330;51.936;7.184;2022-08-21T14:34:08;28.90;66.20
46608;DHT22;32330;51.936;7.184;2022-08-21T14:36:34;28.70;66.40
46608;DHT22;32330;51.936;7.184;2022-08-21T14:38:59;28.00;65.20
46608;DHT22;32330;51.936;7.184;2022-08-21T14:41:25;27.90;65.10
46608;DHT22;32330;51.936;7.184;2022-08-21T14:43:53;27.60;65.50
46608;DHT22;32330;51.936;7.184;2022-08-21T14:46:23;27.70;67.10
46608;DHT22;32330;51.936;7.184;2022-08-21T14:48:49;27.70;67.20
46608;DHT22;32330;51.936;7.184;2022-08-21T14:51:14;27.60;67.40
46608;DHT22;32330;51.936;7.184;2022-08-21T14:53:40;27.40;67.50
46608;DHT22;32330;51.936;7.184;2022-08-21T14:56:05;27.70;67.40
46608;DHT22;32330;51.936;7.184;2022-08-21T14:58:35;28.10;66.90
46608;DHT22;32330;51.936;7.184;2022-08-21T15:01:01;28.00;66.60
46608;DHT22;32330;51.936;7.184;2022-08-21T15:03:29;28.30;67.00
46608;DHT22;32330;51.936;7.184;2022-08-21T15:05:55;28.10;66.30
46608;DHT22;32330;51.936;7.184;2022-08-21T15:08:20;27.90;66.70
46608;DHT22;32330;51.936;7.184;2022-08-21T15:10:45;27.60;66.40
46608;DHT22;32330;51.936;7.184;2022-08-21T15:13:11;27.40;65.80
46608;DHT22;32330;51.936;7.184;2022-08-21T15:15:39;27.40;66.90
46608;DHT22;32330;51.936;7.184;2022-08-21T15:18:05;27.50;66.40
46608;DHT22;32330;51.936;7.184;2022-08-21T15:20:30;27.70;66.50
46608;DHT22;32330;51.936;7.184;2022-08-21T15:22:56;27.90;65.80
46608;DHT22;32330;51.936;7.184;2022-08-21T15:25:21;28.10;64.50
46608;DHT22;32330;51.936;7.184;2022-08-21T15:27:47;28.10;64.50
46608;DHT22;32330;51.936;7.184;2022-08-21T15:30:13;28.10;65.90
46608;DHT22;32330;51.936;7.184;2022-08-21T15:32:39;28.40;64.80
46608;DHT22;32330;51.936;7.184;2022-08-21T15:35:05;28.20;65.90
46608;DHT22;32330;51.936;7.184;2022-08-21T15:37:31;28.60;65.30
46608;DHT22;32330;51.936;7.184;2022-08-21T15:39:56;29.00;64.60
46608;DHT22;32330;51.936;7.184;2022-08-21T15:42:22;29.00;64.90
46608;DHT22;32330;51.936;7.184;2022-08-21T15:44:48;29.10;64.10
46608;DHT22;32330;51.936;7.184;2022-08-21T15:47:17;29.40;63.60
46608;DHT22;32330;51.936;7.184;2022-08-21T15:49:43;29.30;63.30
46608;DHT22;32330;51.936;7.184;2022-08-21T15:52:14;29.10;63.20
46608;DHT22;32330;51.936;7.184;2022-08-21T15:54:39;28.70;63.40
46608;DHT22;32330;51.936;7.184;2022-08-21T15:57:05;28.60;63.60
46608;DHT22;32330;51.936;7.184;2022-08-21T15:59:32;28.30;63.30
46608;DHT22;32330;51.936;7.184;2022-08-21T16:02:02;28.20;62.70
46608;DHT22;32330;51.936;7.184;2022-08-21T16:04:28;28.10;62.50
46608;DHT22;32330;51.936;7.184;2022-08-21T16:06:53;27.90;63.00
46608;DHT22;32330;51.936;7.184;2022-08-21T16:09:19;27.90;62.80
46608;DHT22;32330;51.936;7.184;2022-08-21T16:11:44;27.80;63.30
46608;DHT22;32330;51.936;7.184;2022-08-21T16:14:11;27.90;63.50
46608;DHT22;32330;51.936;7.184;2022-08-21T16:16:37;27.90;63.70
46608;DHT22;32330;51.936;7.184;2022-08-21T16:19:03;27.80;63.90
46608;DHT22;32330;51.936;7.184;2022-08-21T16:21:31;27.60;63.40
46608;DHT22;32330;51.936;7.184;2022-08-21T16:23:57;27.50;64.60
46608;DHT22;32330;51.936;7.184;2022-08-21T16:26:22;27.40;64.70
46608;DHT22;32330;51.936;7.184;2022-08-21T16:28:48;27.30;64.60
46608;DHT22;32330;51.936;7.184;2022-08-21T16:31:14;27.10;64.00
46608;DHT22;32330;51.936;7.184;2022-08-21T16:33:41;27.00;64.00
46608;DHT22;32330;51.936;7.184;2022-08-21T16:36:07;27.00;64.20